Time,TemperatureF,DewpointF,PressureIn,WindDirection,WindDirectionDegrees,WindSpeedMPH,WindSpeedGustMPH,Humidity,HourlyPrecipIn,Conditions,Clouds,dailyrainin,SoftwareType,DateUTC
2013-09-01 00:01:00,66.7,63.4,29.88,South,180,0.0,1.8,89,0.00,,,0.00,WUHU21623XXSP,2013-09-01 04:01:00,
2013-09-01 00:02:00,66.7,63.4,29.88,South,180,0.0,1.8,89,0.00,,,0.00,WUHU21623XXSP,2013-09-01 04:02:00,
2013-09-01 00:07:00,66.7,63.4,29.88,NNE,22,0.0,1.8,89,0.00,,,0.00,WUHU21623XXSP,2013-09-01 04:07:00,
2013-09-01 00:12:00,66.7,63.4,29.88,NNE,22,1.3,1.3,89,0.00,,,0.00,WUHU21623XXSP,2013-09-01 04:12:00,
2013-09-01 00:17:00,66.7,63.4,29.88,NNE,22,0.0,1.3,89,0.00,,,0.00,WUHU21623XXSP,2013-09-01 04:17:00,
2013-09-01 00:22:00,66.7,63.4,29.88,NNE,22,0.0,1.3,89,0.00,,,0.00,WUHU21623XXSP,2013-09-01 04:22:00,
2013-09-01 00:27:00,66.7,63.4,29.88,NNE,22,0.0,0.0,89,0.00,,,0.00,WUHU21623XXSP,2013-09-01 04:27:00,
2013-09-01 00:32:00,66.7,63.7,29.88,NNE,22,0.0,0.0,90,0.00,,,0.00,WUHU21623XXSP,2013-09-01 04:32:00,
2013-09-01 00:37:00,66.7,63.7,29.88,NNE,22,3.8,3.8,90,0.00,,,0.00,WUHU21623XXSP,2013-09-01 04:37:00,
2013-09-01 00:42:00,66.7,63.7,29.88,NNE,22,0.0,3.8,90,0.00,,,0.00,WUHU21623XXSP,2013-09-01 04:42:00,
2013-09-01 00:47:00,66.7,63.7,29.88,South,180,0.0,3.4,90,0.00,,,0.00,WUHU21623XXSP,2013-09-01 04:47:00,
2013-09-01 00:52:00,66.7,63.7,29.88,NE,45,0.0,3.4,90,0.00,,,0.00,WUHU21623XXSP,2013-09-01 04:52:00,
2013-09-01 00:57:00,66.7,63.7,29.88,South,180,0.0,2.0,90,0.00,,,0.00,WUHU21623XXSP,2013-09-01 04:57:00,
2013-09-01 01:02:00,66.7,63.7,29.88,South,180,0.0,2.0,90,0.00,,,0.00,WUHU21623XXSP,2013-09-01 05:02:00,
2013-09-01 01:07:00,66.6,63.5,29.89,South,180,0.0,0.0,90,0.00,,,0.00,WUHU21623XXSP,2013-09-01 05:07:00,
2013-09-01 01:12:00,66.6,63.5,29.88,South,180,0.0,0.0,90,0.00,,,0.00,WUHU21623XXSP,2013-09-01 05:12:00,
2013-09-01 01:17:00,66.4,63.3,29.88,South,180,0.0,0.0,90,0.00,,,0.00,WUHU21623XXSP,2013-09-01 05:17:00,
2013-09-01 01:22:00,66.4,63.3,29.88,South,180,0.0,0.0,90,0.00,,,0.00,WUHU21623XXSP,2013-09-01 05:22:00,
2013-09-01 01:27:00,66.4,63.3,29.88,South,180,0.0,0.0,90,0.00,,,0.00,WUHU21623XXSP,2013-09-01 05:27:00,
2013-09-01 01:32:00,66.4,63.3,29.88,NNE,22,0.0,0.0,90,0.00,,,0.00,WUHU21623XXSP,2013-09-01 05:32:00,
2013-09-01 01:37:00,66.4,63.3,29.88,NNE,22,2.2,2.2,90,0.00,,,0.00,WUHU21623XXSP,2013-09-01 05:37:00,
2013-09-01 01:42:00,66.4,63.3,29.88,NNE,22,0.0,2.2,90,0.00,,,0.00,WUHU21623XXSP,2013-09-01 05:42:00,
2013-09-01 01:47:00,66.4,63.3,29.88,NNE,22,0.0,0.0,90,0.00,,,0.00,WUHU21623XXSP,2013-09-01 05:47:00,
2013-09-01 01:52:00,66.4,63.3,29.88,NNE,22,0.0,0.0,90,0.00,,,0.00,WUHU21623XXSP,2013-09-01 05:52:00,
2013-09-01 01:57:00,66.4,63.3,29.88,NNE,22,0.0,0.0,90,0.00,,,0.00,WUHU21623XXSP,2013-09-01 05:57:00,
2013-09-01 02:02:00,66.4,63.3,29.87,NNE,22,0.0,1.8,90,0.00,,,0.00,WUHU21623XXSP,2013-09-01 06:02:00,
2013-09-01 02:07:00,66.4,63.3,29.87,NNE,22,0.0,1.8,90,0.00,,,0.00,WUHU21623XXSP,2013-09-01 06:07:00,
2013-09-01 02:12:00,66.4,63.3,29.87,NNE,22,0.0,0.0,90,0.00,,,0.00,WUHU21623XXSP,2013-09-01 06:12:00,
2013-09-01 02:17:00,66.4,63.3,29.87,NNE,22,0.0,0.0,90,0.00,,,0.00,WUHU21623XXSP,2013-09-01 06:17:00,
2013-09-01 02:22:00,66.4,63.3,29.86,NNE,22,0.0,0.0,90,0.00,,,0.00,WUHU21623XXSP,2013-09-01 06:22:00,
2013-09-01 02:27:00,66.4,63.3,29.86,South,180,0.0,0.0,90,0.00,,,0.00,WUHU21623XXSP,2013-09-01 06:27:00,
2013-09-01 02:32:00,66.4,63.3,29.86,NE,45,0.0,0.0,90,0.00,,,0.00,WUHU21623XXSP,2013-09-01 06:32:00,
2013-09-01 02:37:00,66.4,63.3,29.86,NNE,22,0.0,0.0,90,0.00,,,0.00,WUHU21623XXSP,2013-09-01 06:37:00,
2013-09-01 02:42:00,66.2,63.1,29.86,South,180,0.0,0.0,90,0.00,,,0.00,WUHU21623XXSP,2013-09-01 06:42:00,
2013-09-01 02:47:00,66.2,63.1,29.86,South,180,0.0,0.0,90,0.00,,,0.00,WUHU21623XXSP,2013-09-01 06:47:00,
2013-09-01 02:52:00,66.0,63.0,29.86,NNE,22,0.0,0.0,90,0.00,,,0.00,WUHU21623XXSP,2013-09-01 06:52:00,
2013-09-01 02:57:00,66.0,63.0,29.86,NNE,22,0.0,0.0,90,0.00,,,0.00,WUHU21623XXSP,2013-09-01 06:57:00,
2013-09-01 03:02:00,66.0,63.0,29.85,NNE,22,0.0,0.0,90,0.00,,,0.00,WUHU21623XXSP,2013-09-01 07:02:00,
2013-09-01 03:07:00,66.0,63.0,29.85,NNE,22,0.0,0.0,90,0.00,,,0.00,WUHU21623XXSP,2013-09-01 07:07:00,
2013-09-01 03:12:00,66.0,63.0,29.85,NNE,22,0.0,0.0,90,0.00,,,0.00,WUHU21623XXSP,2013-09-01 07:12:00,
2013-09-01 03:17:00,66.0,63.0,29.84,NNE,22,0.0,0.0,90,0.00,,,0.00,WUHU21623XXSP,2013-09-01 07:17:00,
2013-09-01 03:22:00,66.0,63.0,29.84,NNE,22,0.0,0.0,90,0.00,,,0.00,WUHU21623XXSP,2013-09-01 07:22:00,
2013-09-01 03:27:00,66.0,63.0,29.84,NNE,22,0.0,0.0,90,0.00,,,0.00,WUHU21623XXSP,2013-09-01 07:27:00,
2013-09-01 03:32:00,66.0,63.0,29.83,NNE,22,0.0,0.0,90,0.00,,,0.00,WUHU21623XXSP,2013-09-01 07:32:00,
2013-09-01 03:37:00,66.0,63.0,29.83,NNE,22,0.0,0.0,90,0.00,,,0.00,WUHU21623XXSP,2013-09-01 07:37:00,
2013-09-01 03:42:00,66.0,63.0,29.83,NNE,22,0.0,0.0,90,0.00,,,0.00,WUHU21623XXSP,2013-09-01 07:42:00,
2013-09-01 03:47:00,65.8,62.8,29.83,South,180,0.0,0.0,90,0.00,,,0.00,WUHU21623XXSP,2013-09-01 07:47:00,
2013-09-01 03:52:00,65.7,62.7,29.83,South,180,0.0,0.0,90,0.00,,,0.00,WUHU21623XXSP,2013-09-01 07:52:00,
2013-09-01 03:57:00,65.5,62.5,29.83,South,180,0.0,0.0,90,0.00,,,0.00,WUHU21623XXSP,2013-09-01 07:57:00,
2013-09-01 04:02:00,65.3,62.3,29.83,South,180,0.0,0.0,90,0.00,,,0.00,WUHU21623XXSP,2013-09-01 08:02:00,
2013-09-01 04:07:00,65.1,62.2,29.83,South,180,0.0,0.0,90,0.00,,,0.00,WUHU21623XXSP,2013-09-01 08:07:00,
2013-09-01 04:12:00,65.1,62.2,29.83,South,180,0.0,0.0,90,0.00,,,0.00,WUHU21623XXSP,2013-09-01 08:12:00,
2013-09-01 04:17:00,64.9,62.0,29.83,South,180,0.0,0.0,90,0.00,,,0.00,WUHU21623XXSP,2013-09-01 08:17:00,
2013-09-01 04:22:00,64.8,61.8,29.83,South,180,0.0,0.0,90,0.00,,,0.00,WUHU21623XXSP,2013-09-01 08:22:00,
2013-09-01 04:27:00,64.6,61.7,29.83,South,180,0.0,0.0,90,0.00,,,0.00,WUHU21623XXSP,2013-09-01 08:27:00,
2013-09-01 04:32:00,64.6,61.7,29.83,South,180,0.0,0.0,90,0.00,,,0.00,WUHU21623XXSP,2013-09-01 08:32:00,
2013-09-01 04:37:00,64.6,61.7,29.82,South,180,0.0,0.0,90,0.00,,,0.00,WUHU21623XXSP,2013-09-01 08:37:00,
2013-09-01 04:42:00,64.2,61.3,29.83,South,180,0.0,0.0,90,0.00,,,0.00,WUHU21623XXSP,2013-09-01 08:42:00,
2013-09-01 04:47:00,64.2,61.6,29.83,South,180,0.0,0.0,91,0.00,,,0.00,WUHU21623XXSP,2013-09-01 08:47:00,
2013-09-01 04:52:00,64.2,61.6,29.82,South,180,0.0,0.0,91,0.00,,,0.00,WUHU21623XXSP,2013-09-01 08:52:00,
2013-09-01 04:57:00,64.0,61.4,29.83,South,180,0.0,0.0,91,0.00,,,0.00,WUHU21623XXSP,2013-09-01 08:57:00,
2013-09-01 05:02:00,64.0,61.4,29.83,South,180,0.0,0.0,91,0.00,,,0.00,WUHU21623XXSP,2013-09-01 09:02:00,
2013-09-01 05:07:00,64.0,61.4,29.83,NNE,22,0.0,0.0,91,0.00,,,0.00,WUHU21623XXSP,2013-09-01 09:07:00,
2013-09-01 05:12:00,64.0,61.4,29.83,NNE,22,0.0,0.0,91,0.00,,,0.00,WUHU21623XXSP,2013-09-01 09:12:00,
2013-09-01 05:17:00,64.0,61.4,29.83,NNE,22,0.0,0.0,91,0.00,,,0.00,WUHU21623XXSP,2013-09-01 09:17:00,
2013-09-01 05:22:00,64.0,61.4,29.83,NNE,22,0.0,0.0,91,0.00,,,0.00,WUHU21623XXSP,2013-09-01 09:22:00,
2013-09-01 05:27:00,64.0,61.4,29.83,NNE,22,0.0,0.0,91,0.00,,,0.00,WUHU21623XXSP,2013-09-01 09:27:00,
2013-09-01 05:32:00,64.2,61.6,29.83,NNE,22,0.0,0.0,91,0.00,,,0.00,WUHU21623XXSP,2013-09-01 09:32:00,
2013-09-01 05:37:00,64.2,61.6,29.83,NNE,22,0.0,0.0,91,0.00,,,0.00,WUHU21623XXSP,2013-09-01 09:37:00,
2013-09-01 05:42:00,64.2,61.6,29.83,NNE,22,0.0,0.0,91,0.00,,,0.00,WUHU21623XXSP,2013-09-01 09:42:00,
2013-09-01 05:47:00,64.2,61.6,29.83,NNE,22,0.0,0.0,91,0.00,,,0.00,WUHU21623XXSP,2013-09-01 09:47:00,
2013-09-01 05:52:00,64.4,61.8,29.83,NNE,22,0.0,0.0,91,0.00,,,0.00,WUHU21623XXSP,2013-09-01 09:52:00,
2013-09-01 05:57:00,64.6,62.0,29.83,NNE,22,0.0,0.0,91,0.00,,,0.00,WUHU21623XXSP,2013-09-01 09:57:00,
2013-09-01 06:02:00,64.6,62.3,29.83,NNE,22,0.0,0.0,92,0.00,,,0.00,WUHU21623XXSP,2013-09-01 10:02:00,
2013-09-01 06:07:00,64.6,62.3,29.83,NE,45,0.0,0.0,92,0.00,,,0.00,WUHU21623XXSP,2013-09-01 10:07:00,
2013-09-01 06:12:00,64.6,62.3,29.83,NE,45,0.0,0.0,92,0.00,,,0.00,WUHU21623XXSP,2013-09-01 10:12:00,
2013-09-01 06:17:00,64.9,62.4,29.83,South,180,0.0,0.0,92,0.00,,,0.00,WUHU21623XXSP,2013-09-01 10:17:00,
2013-09-01 06:22:00,64.9,62.6,29.83,NNE,22,0.0,0.0,92,0.00,,,0.00,WUHU21623XXSP,2013-09-01 10:22:00,
2013-09-01 06:27:00,64.9,62.6,29.83,NNE,22,0.0,0.0,92,0.00,,,0.00,WUHU21623XXSP,2013-09-01 10:27:00,
2013-09-01 06:32:00,64.9,62.6,29.83,South,180,0.0,0.0,92,0.00,,,0.00,WUHU21623XXSP,2013-09-01 10:32:00,
2013-09-01 06:37:00,64.9,62.6,29.83,South,180,0.0,0.0,92,0.00,,,0.00,WUHU21623XXSP,2013-09-01 10:37:00,
2013-09-01 06:42:00,64.9,62.6,29.82,NNE,22,0.0,0.0,92,0.00,,,0.00,WUHU21623XXSP,2013-09-01 10:42:00,
2013-09-01 06:47:00,64.9,62.6,29.82,NNE,22,0.0,0.0,92,0.00,,,0.00,WUHU21623XXSP,2013-09-01 10:47:00,
2013-09-01 06:52:00,65.1,62.6,29.82,NNE,22,0.0,0.0,92,0.00,,,0.00,WUHU21623XXSP,2013-09-01 10:52:00,
2013-09-01 06:57:00,64.9,62.6,29.83,NNE,22,0.0,0.0,92,0.00,,,0.00,WUHU21623XXSP,2013-09-01 10:57:00,
2013-09-01 07:02:00,65.1,62.7,29.83,NNE,22,0.0,0.0,92,0.00,,,0.00,WUHU21623XXSP,2013-09-01 11:02:00,
2013-09-01 07:07:00,65.1,62.7,29.83,NNE,22,0.0,0.0,92,0.00,,,0.00,WUHU21623XXSP,2013-09-01 11:07:00,
2013-09-01 07:12:00,65.1,62.7,29.84,NE,45,0.0,1.1,92,0.00,,,0.00,WUHU21623XXSP,2013-09-01 11:12:00,
2013-09-01 07:17:00,65.1,62.7,29.84,NE,45,0.0,1.1,92,0.00,,,0.00,WUHU21623XXSP,2013-09-01 11:17:00,
2013-09-01 07:22:00,65.1,62.7,29.84,NE,45,0.0,0.0,92,0.00,,,0.00,WUHU21623XXSP,2013-09-01 11:22:00,
2013-09-01 07:27:00,65.1,62.7,29.84,NE,45,0.0,0.0,92,0.00,,,0.00,WUHU21623XXSP,2013-09-01 11:27:00,
2013-09-01 07:32:00,65.3,62.9,29.84,NE,45,0.0,0.0,92,0.00,,,0.00,WUHU21623XXSP,2013-09-01 11:32:00,
2013-09-01 07:37:00,65.3,62.9,29.83,NE,45,0.0,0.0,92,0.00,,,0.00,WUHU21623XXSP,2013-09-01 11:37:00,
2013-09-01 07:42:00,65.3,62.9,29.83,NE,45,0.0,0.0,92,0.00,,,0.00,WUHU21623XXSP,2013-09-01 11:42:00,
2013-09-01 07:47:00,65.5,63.1,29.83,NNE,22,0.0,0.0,92,0.00,,,0.00,WUHU21623XXSP,2013-09-01 11:47:00,
2013-09-01 07:52:00,65.5,63.1,29.83,NNE,22,0.0,0.0,92,0.00,,,0.00,WUHU21623XXSP,2013-09-01 11:52:00,
2013-09-01 07:57:00,65.7,63.2,29.83,NE,45,0.0,0.0,92,0.00,,,0.00,WUHU21623XXSP,2013-09-01 11:57:00,
2013-09-01 08:02:00,65.8,63.4,29.83,NE,45,2.7,2.7,92,0.00,,,0.00,WUHU21623XXSP,2013-09-01 12:02:00,
2013-09-01 08:07:00,65.8,63.4,29.82,South,180,0.0,2.7,92,0.00,,,0.00,WUHU21623XXSP,2013-09-01 12:07:00,
2013-09-01 08:12:00,66.0,63.6,29.82,South,180,0.0,2.7,92,0.00,,,0.00,WUHU21623XXSP,2013-09-01 12:12:00,
2013-09-01 08:17:00,65.8,63.4,29.82,SSE,157,0.0,0.0,92,0.00,,,0.00,WUHU21623XXSP,2013-09-01 12:17:00,
2013-09-01 08:22:00,66.0,63.6,29.82,SSE,157,0.0,0.0,92,0.00,,,0.00,WUHU21623XXSP,2013-09-01 12:22:00,
2013-09-01 08:27:00,66.0,63.9,29.82,South,180,0.0,0.0,93,0.00,,,0.00,WUHU21623XXSP,2013-09-01 12:27:00,
2013-09-01 08:32:00,66.0,63.9,29.82,South,180,0.0,0.0,93,0.00,,,0.00,WUHU21623XXSP,2013-09-01 12:32:00,
2013-09-01 08:37:00,66.0,63.9,29.82,South,180,0.0,0.0,93,0.00,,,0.00,WUHU21623XXSP,2013-09-01 12:37:00,
2013-09-01 08:42:00,66.0,63.9,29.82,South,180,0.0,0.0,93,0.00,,,0.00,WUHU21623XXSP,2013-09-01 12:42:00,
2013-09-01 08:47:00,66.2,63.8,29.82,South,180,0.0,0.0,92,0.00,,,0.00,WUHU21623XXSP,2013-09-01 12:47:00,
2013-09-01 08:52:00,66.4,64.2,29.83,South,180,0.0,0.0,93,0.00,,,0.00,WUHU21623XXSP,2013-09-01 12:52:00,
2013-09-01 08:57:00,66.4,64.2,29.82,NE,45,0.0,0.0,93,0.00,,,0.00,WUHU21623XXSP,2013-09-01 12:57:00,
2013-09-01 09:02:00,66.4,63.9,29.82,NNE,22,1.3,3.1,92,0.00,,,0.00,WUHU21623XXSP,2013-09-01 13:02:00,
2013-09-01 09:07:00,66.6,64.1,29.81,SSE,157,0.0,3.1,92,0.00,,,0.00,WUHU21623XXSP,2013-09-01 13:07:00,
2013-09-01 09:12:00,66.6,64.1,29.81,South,180,0.0,0.0,92,0.00,,,0.00,WUHU21623XXSP,2013-09-01 13:12:00,
2013-09-01 09:17:00,66.7,64.3,29.82,NE,45,0.0,3.8,92,0.00,,,0.00,WUHU21623XXSP,2013-09-01 13:17:00,
2013-09-01 09:22:00,66.7,64.3,29.83,NE,45,0.0,3.8,92,0.00,,,0.00,WUHU21623XXSP,2013-09-01 13:22:00,
2013-09-01 09:27:00,66.7,64.3,29.83,South,180,0.0,0.0,92,0.00,,,0.00,WUHU21623XXSP,2013-09-01 13:27:00,
2013-09-01 09:32:00,66.7,64.3,29.83,South,180,0.0,0.0,92,0.00,,,0.00,WUHU21623XXSP,2013-09-01 13:32:00,
2013-09-01 09:37:00,66.9,64.5,29.83,South,180,0.0,0.0,92,0.00,,,0.00,WUHU21623XXSP,2013-09-01 13:37:00,
2013-09-01 09:42:00,66.9,64.5,29.83,South,180,0.0,0.0,92,0.00,,,0.00,WUHU21623XXSP,2013-09-01 13:42:00,
2013-09-01 09:47:00,67.1,64.7,29.83,South,180,0.0,2.0,92,0.00,,,0.00,WUHU21623XXSP,2013-09-01 13:47:00,
2013-09-01 09:52:00,66.9,64.5,29.83,NE,45,0.0,2.0,92,0.00,,,0.00,WUHU21623XXSP,2013-09-01 13:52:00,
2013-09-01 09:57:00,66.9,64.5,29.83,NE,45,0.0,0.0,92,0.00,,,0.00,WUHU21623XXSP,2013-09-01 13:57:00,
2013-09-01 10:02:00,67.1,64.7,29.82,NE,45,0.0,1.8,92,0.00,,,0.00,WUHU21623XXSP,2013-09-01 14:02:00,
2013-09-01 10:07:00,67.1,64.7,29.81,South,180,0.0,2.2,92,0.00,,,0.00,WUHU21623XXSP,2013-09-01 14:07:00,
2013-09-01 10:12:00,67.1,64.7,29.81,South,180,0.0,2.2,92,0.00,,,0.00,WUHU21623XXSP,2013-09-01 14:12:00,
2013-09-01 10:17:00,67.3,65.1,29.82,South,180,0.0,0.0,93,0.00,,,0.00,WUHU21623XXSP,2013-09-01 14:17:00,
2013-09-01 10:22:00,67.3,65.1,29.82,South,180,0.0,0.0,93,0.00,,,0.00,WUHU21623XXSP,2013-09-01 14:22:00,
2013-09-01 10:27:00,67.6,65.5,29.81,SSE,157,2.0,2.0,93,0.00,,,0.00,WUHU21623XXSP,2013-09-01 14:27:00,
2013-09-01 10:32:00,67.6,65.5,29.82,NE,45,0.0,2.0,93,0.00,,,0.00,WUHU21623XXSP,2013-09-01 14:32:00,
2013-09-01 10:37:00,67.6,65.5,29.82,NE,45,0.0,2.5,93,0.00,,,0.00,WUHU21623XXSP,2013-09-01 14:37:00,
2013-09-01 10:42:00,67.6,65.5,29.82,NNE,22,0.0,2.5,93,0.00,,,0.00,WUHU21623XXSP,2013-09-01 14:42:00,
2013-09-01 10:47:00,67.8,65.7,29.82,NNE,22,0.0,0.7,93,0.00,,,0.00,WUHU21623XXSP,2013-09-01 14:47:00,
2013-09-01 10:52:00,67.8,65.7,29.82,South,180,4.3,4.3,93,0.00,,,0.00,WUHU21623XXSP,2013-09-01 14:52:00,
2013-09-01 10:57:00,68.2,66.0,29.82,NE,45,2.0,4.3,92,0.00,,,0.00,WUHU21623XXSP,2013-09-01 14:57:00,
2013-09-01 11:02:00,68.2,65.7,29.82,NE,45,5.4,5.4,92,0.00,,,0.00,WUHU21623XXSP,2013-09-01 15:02:00,
2013-09-01 11:07:00,68.5,65.9,29.82,South,180,2.9,5.4,92,0.00,,,0.00,WUHU21623XXSP,2013-09-01 15:07:00,
2013-09-01 11:12:00,68.5,66.1,29.82,South,180,2.9,5.4,92,0.00,,,0.00,WUHU21623XXSP,2013-09-01 15:12:00,
2013-09-01 11:17:00,68.7,66.3,29.83,South,180,0.0,2.9,92,0.00,,,0.00,WUHU21623XXSP,2013-09-01 15:17:00,
2013-09-01 11:22:00,68.9,66.5,29.83,South,180,0.0,0.0,92,0.00,,,0.00,WUHU21623XXSP,2013-09-01 15:22:00,
2013-09-01 11:27:00,68.7,66.3,29.83,South,180,0.0,0.0,92,0.00,,,0.00,WUHU21623XXSP,2013-09-01 15:27:00,
2013-09-01 11:32:00,69.1,66.6,29.83,South,180,0.0,0.0,92,0.00,,,0.00,WUHU21623XXSP,2013-09-01 15:32:00,
2013-09-01 11:37:00,69.1,66.6,29.83,South,180,0.0,0.0,92,0.00,,,0.00,WUHU21623XXSP,2013-09-01 15:37:00,
2013-09-01 11:42:00,69.1,66.6,29.83,South,180,0.0,0.0,92,0.00,,,0.00,WUHU21623XXSP,2013-09-01 15:42:00,
2013-09-01 11:47:00,69.1,66.6,29.83,South,180,0.0,0.0,92,0.00,,,0.00,WUHU21623XXSP,2013-09-01 15:47:00,
2013-09-01 11:52:00,69.1,66.6,29.84,South,180,0.0,0.0,92,0.00,,,0.00,WUHU21623XXSP,2013-09-01 15:52:00,
2013-09-01 11:57:00,69.1,66.6,29.84,South,180,0.0,0.0,92,0.00,,,0.00,WUHU21623XXSP,2013-09-01 15:57:00,
2013-09-01 12:02:00,69.1,66.6,29.84,South,180,0.0,0.0,92,0.00,,,0.00,WUHU21623XXSP,2013-09-01 16:02:00,
2013-09-01 12:07:00,69.1,66.6,29.84,South,180,0.0,0.0,92,0.00,,,0.00,WUHU21623XXSP,2013-09-01 16:07:00,
2013-09-01 12:12:00,69.1,66.6,29.84,South,180,0.0,0.0,92,0.00,,,0.00,WUHU21623XXSP,2013-09-01 16:12:00,
2013-09-01 12:17:00,69.1,66.6,29.83,South,180,0.0,0.0,92,0.00,,,0.00,WUHU21623XXSP,2013-09-01 16:17:00,
2013-09-01 12:22:00,69.1,66.6,29.83,South,180,0.0,0.0,92,0.00,,,0.00,WUHU21623XXSP,2013-09-01 16:22:00,
2013-09-01 12:27:00,69.1,66.6,29.83,South,180,0.0,0.0,92,0.00,,,0.00,WUHU21623XXSP,2013-09-01 16:27:00,
2013-09-01 12:32:00,69.4,66.8,29.83,South,180,0.0,0.0,92,0.00,,,0.00,WUHU21623XXSP,2013-09-01 16:32:00,
2013-09-01 12:37:00,69.4,67.0,29.83,NNE,22,0.0,0.0,92,0.00,,,0.00,WUHU21623XXSP,2013-09-01 16:37:00,
2013-09-01 12:42:00,69.6,67.2,29.83,South,180,0.0,1.6,92,0.00,,,0.00,WUHU21623XXSP,2013-09-01 16:42:00,
2013-09-01 12:47:00,69.6,67.2,29.83,South,180,0.0,1.8,92,0.00,,,0.00,WUHU21623XXSP,2013-09-01 16:47:00,
2013-09-01 12:52:00,69.6,67.2,29.83,South,180,0.0,1.8,92,0.00,,,0.00,WUHU21623XXSP,2013-09-01 16:52:00,
2013-09-01 12:57:00,69.8,67.2,29.82,SSE,157,0.0,0.0,92,0.00,,,0.00,WUHU21623XXSP,2013-09-01 16:57:00,
2013-09-01 13:02:00,70.0,67.4,29.82,SSE,157,0.0,0.0,93,0.00,,,0.00,WUHU21623XXSP,2013-09-01 17:02:00,
2013-09-01 13:07:00,70.3,67.9,29.82,South,180,0.0,2.0,92,0.00,,,0.00,WUHU21623XXSP,2013-09-01 17:07:00,
2013-09-01 13:12:00,70.3,67.9,29.82,SSE,157,0.0,2.0,92,0.00,,,0.00,WUHU21623XXSP,2013-09-01 17:12:00,
2013-09-01 13:17:00,70.7,68.3,29.81,SSE,157,1.8,1.8,92,0.00,,,0.00,WUHU21623XXSP,2013-09-01 17:17:00,
2013-09-01 13:22:00,70.9,68.4,29.81,NE,45,0.0,1.8,92,0.00,,,0.00,WUHU21623XXSP,2013-09-01 17:22:00,
2013-09-01 13:27:00,71.2,68.8,29.82,South,180,0.0,2.2,92,0.00,,,0.00,WUHU21623XXSP,2013-09-01 17:27:00,
2013-09-01 13:32:00,71.4,69.0,29.82,South,180,0.0,2.2,92,0.00,,,0.00,WUHU21623XXSP,2013-09-01 17:32:00,
2013-09-01 13:37:00,71.6,69.2,29.81,South,180,0.0,2.0,92,0.00,,,0.00,WUHU21623XXSP,2013-09-01 17:37:00,
2013-09-01 13:42:00,71.8,69.3,29.81,South,180,0.0,2.0,92,0.00,,,0.00,WUHU21623XXSP,2013-09-01 17:42:00,
2013-09-01 13:47:00,71.8,69.3,29.81,South,180,0.0,0.0,92,0.00,,,0.00,WUHU21623XXSP,2013-09-01 17:47:00,
2013-09-01 13:52:00,72.0,69.5,29.81,South,180,0.0,0.0,92,0.00,,,0.00,WUHU21623XXSP,2013-09-01 17:52:00,
2013-09-01 13:57:00,72.1,69.7,29.80,South,180,2.9,2.9,92,0.00,,,0.00,WUHU21623XXSP,2013-09-01 17:57:00,
2013-09-01 14:02:00,72.3,69.9,29.80,South,180,2.9,4.0,92,0.00,,,0.00,WUHU21623XXSP,2013-09-01 18:02:00,
2013-09-01 14:07:00,73.0,70.3,29.80,South,180,6.5,8.1,91,0.00,,,0.00,WUHU21623XXSP,2013-09-01 18:07:00,
2013-09-01 14:12:00,73.2,70.5,29.80,SSE,157,0.0,8.1,91,0.00,,,0.00,WUHU21623XXSP,2013-09-01 18:12:00,
2013-09-01 14:17:00,73.2,70.5,29.80,South,180,1.1,1.1,91,0.00,,,0.00,WUHU21623XXSP,2013-09-01 18:17:00,
2013-09-01 14:22:00,73.4,70.3,29.80,SSE,157,2.5,2.5,90,0.00,,,0.00,WUHU21623XXSP,2013-09-01 18:22:00,
2013-09-01 14:27:00,73.6,70.5,29.80,South,180,2.0,6.5,90,0.00,,,0.00,WUHU21623XXSP,2013-09-01 18:27:00,
2013-09-01 14:32:00,73.8,70.7,29.80,SSE,157,0.0,6.5,90,0.00,,,0.00,WUHU21623XXSP,2013-09-01 18:32:00,
2013-09-01 14:37:00,74.1,70.7,29.80,South,180,6.3,6.3,89,0.00,,,0.00,WUHU21623XXSP,2013-09-01 18:37:00,
2013-09-01 14:42:00,74.5,71.1,29.80,SSE,157,2.9,6.3,89,0.00,,,0.00,WUHU21623XXSP,2013-09-01 18:42:00,
2013-09-01 14:47:00,74.5,71.1,29.79,South,180,0.0,2.9,89,0.00,,,0.00,WUHU21623XXSP,2013-09-01 18:47:00,
2013-09-01 14:52:00,74.7,70.9,29.80,South,180,0.0,0.0,88,0.00,,,0.00,WUHU21623XXSP,2013-09-01 18:52:00,
2013-09-01 14:57:00,74.7,70.9,29.80,SSE,157,0.0,0.0,88,0.00,,,0.00,WUHU21623XXSP,2013-09-01 18:57:00,
2013-09-01 15:02:00,74.7,70.9,29.80,SSE,157,0.0,0.0,88,0.00,,,0.00,WUHU21623XXSP,2013-09-01 19:02:00,
2013-09-01 15:07:00,74.5,70.7,29.80,South,180,0.0,0.0,88,0.00,,,0.00,WUHU21623XXSP,2013-09-01 19:07:00,
2013-09-01 15:12:00,74.8,71.1,29.80,South,180,0.0,0.0,88,0.00,,,0.00,WUHU21623XXSP,2013-09-01 19:12:00,
2013-09-01 15:17:00,74.8,71.1,29.80,South,180,0.0,0.0,88,0.00,,,0.00,WUHU21623XXSP,2013-09-01 19:17:00,
2013-09-01 15:22:00,74.7,71.1,29.80,South,180,0.0,0.0,87,0.00,,,0.00,WUHU21623XXSP,2013-09-01 19:22:00,
2013-09-01 15:27:00,74.8,70.8,29.80,South,180,0.0,0.0,87,0.00,,,0.00,WUHU21623XXSP,2013-09-01 19:27:00,
2013-09-01 15:32:00,74.8,70.8,29.80,South,180,0.0,0.0,87,0.00,,,0.00,WUHU21623XXSP,2013-09-01 19:32:00,
2013-09-01 15:37:00,74.8,70.8,29.80,South,180,4.7,4.7,87,0.00,,,0.00,WUHU21623XXSP,2013-09-01 19:37:00,
2013-09-01 15:42:00,75.0,70.8,29.79,South,180,0.0,4.7,87,0.00,,,0.00,WUHU21623XXSP,2013-09-01 19:42:00,
2013-09-01 15:47:00,75.0,71.3,29.79,South,180,0.0,0.0,88,0.00,,,0.00,WUHU21623XXSP,2013-09-01 19:47:00,
2013-09-01 15:52:00,75.0,70.9,29.79,South,180,0.0,0.0,87,0.00,,,0.00,WUHU21623XXSP,2013-09-01 19:52:00,
2013-09-01 15:57:00,75.0,70.9,29.79,South,180,0.0,0.0,87,0.00,,,0.00,WUHU21623XXSP,2013-09-01 19:57:00,
2013-09-01 16:02:00,75.2,71.1,29.79,South,180,0.0,0.0,87,0.00,,,0.00,WUHU21623XXSP,2013-09-01 20:02:00,
2013-09-01 16:07:00,75.4,71.3,29.79,SSE,157,0.0,1.1,87,0.00,,,0.00,WUHU21623XXSP,2013-09-01 20:07:00,
2013-09-01 16:12:00,75.4,71.3,29.79,SSE,157,0.0,1.1,87,0.00,,,0.00,WUHU21623XXSP,2013-09-01 20:12:00,
2013-09-01 16:17:00,75.6,71.5,29.79,SE,135,0.0,0.0,87,0.00,,,0.00,WUHU21623XXSP,2013-09-01 20:17:00,
2013-09-01 16:22:00,75.4,71.3,29.79,SSE,157,0.0,0.0,87,0.00,,,0.00,WUHU21623XXSP,2013-09-01 20:22:00,
2013-09-01 16:27:00,75.6,71.5,29.79,SSE,157,0.0,0.0,87,0.00,,,0.00,WUHU21623XXSP,2013-09-01 20:27:00,
2013-09-01 16:32:00,75.4,71.3,29.79,SSE,157,0.0,0.0,87,0.00,,,0.00,WUHU21623XXSP,2013-09-01 20:32:00,
2013-09-01 16:37:00,75.6,71.5,29.79,SSE,157,0.0,0.0,87,0.00,,,0.00,WUHU21623XXSP,2013-09-01 20:37:00,
2013-09-01 16:42:00,75.6,71.8,29.78,SSE,157,0.0,0.0,87,0.00,,,0.00,WUHU21623XXSP,2013-09-01 20:42:00,
2013-09-01 16:47:00,75.6,71.5,29.78,South,180,1.3,1.3,87,0.00,,,0.00,WUHU21623XXSP,2013-09-01 20:47:00,
2013-09-01 16:52:00,75.6,71.5,29.78,South,180,0.0,1.3,87,0.00,,,0.00,WUHU21623XXSP,2013-09-01 20:52:00,
2013-09-01 16:57:00,75.9,71.8,29.78,South,180,0.0,1.3,87,0.00,,,0.00,WUHU21623XXSP,2013-09-01 20:57:00,
2013-09-01 17:02:00,75.9,71.8,29.78,SSE,157,0.0,0.0,87,0.00,,,0.00,WUHU21623XXSP,2013-09-01 21:02:00,
2013-09-01 17:07:00,75.9,71.8,29.78,SSE,157,0.0,0.0,87,0.00,,,0.00,WUHU21623XXSP,2013-09-01 21:07:00,
2013-09-01 17:12:00,76.1,72.0,29.78,NNE,22,0.0,0.0,87,0.00,,,0.00,WUHU21623XXSP,2013-09-01 21:12:00,
2013-09-01 17:17:00,76.3,72.0,29.78,NNE,22,0.0,0.0,87,0.00,,,0.00,WUHU21623XXSP,2013-09-01 21:17:00,
2013-09-01 17:22:00,76.3,72.2,29.77,NNE,22,0.0,0.0,87,0.00,,,0.00,WUHU21623XXSP,2013-09-01 21:22:00,
2013-09-01 17:27:00,76.3,72.2,29.77,NNE,22,0.0,0.0,87,0.00,,,0.00,WUHU21623XXSP,2013-09-01 21:27:00,
2013-09-01 17:32:00,76.3,71.8,29.77,NNW,337,0.0,0.0,86,0.00,,,0.00,WUHU21623XXSP,2013-09-01 21:32:00,
2013-09-01 17:37:00,76.6,72.1,29.77,NNW,337,0.0,0.0,86,0.00,,,0.00,WUHU21623XXSP,2013-09-01 21:37:00,
2013-09-01 17:42:00,76.6,72.1,29.77,NNW,337,0.0,0.0,86,0.00,,,0.00,WUHU21623XXSP,2013-09-01 21:42:00,
2013-09-01 17:47:00,76.6,72.5,29.76,NNW,337,0.0,0.0,86,0.00,,,0.00,WUHU21623XXSP,2013-09-01 21:47:00,
2013-09-01 17:52:00,76.6,72.1,29.76,NNW,337,0.0,0.0,86,0.00,,,0.00,WUHU21623XXSP,2013-09-01 21:52:00,
2013-09-01 17:57:00,76.6,72.1,29.77,NNW,337,0.0,0.0,86,0.00,,,0.00,WUHU21623XXSP,2013-09-01 21:57:00,
2013-09-01 18:02:00,76.6,72.0,29.76,NNW,337,0.0,0.0,86,0.00,,,0.00,WUHU21623XXSP,2013-09-01 22:02:00,
2013-09-01 18:07:00,76.5,72.0,29.76,NNW,337,0.0,0.0,86,0.00,,,0.00,WUHU21623XXSP,2013-09-01 22:07:00,
2013-09-01 18:12:00,76.5,72.0,29.76,NNW,337,0.0,0.0,86,0.00,,,0.00,WUHU21623XXSP,2013-09-01 22:12:00,
2013-09-01 18:17:00,76.3,71.8,29.76,NNW,337,0.0,0.0,86,0.00,,,0.00,WUHU21623XXSP,2013-09-01 22:17:00,
2013-09-01 18:22:00,76.3,71.8,29.75,NNW,337,0.0,0.0,86,0.00,,,0.00,WUHU21623XXSP,2013-09-01 22:22:00,
2013-09-01 18:27:00,76.1,71.6,29.75,NNW,337,0.0,0.0,86,0.00,,,0.00,WUHU21623XXSP,2013-09-01 22:27:00,
2013-09-01 18:32:00,76.1,71.6,29.75,South,180,0.0,2.9,86,0.00,,,0.00,WUHU21623XXSP,2013-09-01 22:32:00,
2013-09-01 18:37:00,75.9,71.5,29.75,South,180,0.0,2.9,86,0.00,,,0.00,WUHU21623XXSP,2013-09-01 22:37:00,
2013-09-01 18:42:00,75.9,71.5,29.75,South,180,0.0,0.0,86,0.00,,,0.00,WUHU21623XXSP,2013-09-01 22:42:00,
2013-09-01 18:47:00,75.9,71.5,29.75,South,180,0.0,0.0,86,0.00,,,0.00,WUHU21623XXSP,2013-09-01 22:47:00,
2013-09-01 18:52:00,75.7,71.3,29.75,South,180,0.0,0.0,86,0.00,,,0.00,WUHU21623XXSP,2013-09-01 22:52:00,
2013-09-01 18:57:00,75.9,71.3,29.75,South,180,0.0,0.0,86,0.00,,,0.00,WUHU21623XXSP,2013-09-01 22:57:00,
2013-09-01 19:02:00,75.7,71.3,29.75,South,180,0.0,0.0,86,0.00,,,0.00,WUHU21623XXSP,2013-09-01 23:02:00,
2013-09-01 19:07:00,75.7,71.3,29.75,South,180,0.0,0.0,86,0.00,,,0.00,WUHU21623XXSP,2013-09-01 23:07:00,
2013-09-01 19:12:00,75.7,71.3,29.75,South,180,0.0,0.0,86,0.00,,,0.00,WUHU21623XXSP,2013-09-01 23:12:00,
2013-09-01 19:17:00,75.6,71.1,29.75,South,180,0.0,0.0,86,0.00,,,0.00,WUHU21623XXSP,2013-09-01 23:17:00,
2013-09-01 19:22:00,75.4,71.5,29.75,South,180,0.0,0.0,87,0.00,,,0.00,WUHU21623XXSP,2013-09-01 23:22:00,
2013-09-01 19:27:00,75.4,71.3,29.76,South,180,0.0,0.0,87,0.00,,,0.00,WUHU21623XXSP,2013-09-01 23:27:00,
2013-09-01 19:32:00,75.0,70.9,29.76,South,180,0.0,0.0,87,0.00,,,0.00,WUHU21623XXSP,2013-09-01 23:32:00,
2013-09-01 19:37:00,75.0,70.9,29.76,South,180,0.0,0.0,87,0.00,,,0.00,WUHU21623XXSP,2013-09-01 23:37:00,
2013-09-01 19:42:00,74.8,70.8,29.75,South,180,0.0,0.0,87,0.00,,,0.00,WUHU21623XXSP,2013-09-01 23:42:00,
2013-09-01 19:47:00,74.8,70.8,29.76,South,180,0.0,0.0,87,0.00,,,0.00,WUHU21623XXSP,2013-09-01 23:47:00,
2013-09-01 19:52:00,74.5,70.7,29.76,South,180,0.0,0.0,88,0.00,,,0.00,WUHU21623XXSP,2013-09-01 23:52:00,
2013-09-01 19:57:00,74.3,70.6,29.76,South,180,0.0,0.0,88,0.00,,,0.00,WUHU21623XXSP,2013-09-01 23:57:00,
2013-09-01 20:02:00,73.9,70.2,29.76,South,180,0.0,0.0,88,0.00,,,0.00,WUHU21623XXSP,2013-09-02 00:02:00,
2013-09-01 20:07:00,73.8,70.2,29.76,South,180,0.0,0.0,88,0.00,,,0.00,WUHU21623XXSP,2013-09-02 00:07:00,
2013-09-01 20:12:00,73.6,69.8,29.76,South,180,0.0,0.0,88,0.00,,,0.00,WUHU21623XXSP,2013-09-02 00:12:00,
2013-09-01 20:17:00,73.2,69.5,29.76,South,180,0.0,0.0,88,0.00,,,0.00,WUHU21623XXSP,2013-09-02 00:17:00,
2013-09-01 20:22:00,73.2,69.5,29.76,South,180,0.0,0.0,88,0.00,,,0.00,WUHU21623XXSP,2013-09-02 00:22:00,
2013-09-01 20:27:00,73.0,69.3,29.76,South,180,0.0,0.0,88,0.00,,,0.00,WUHU21623XXSP,2013-09-02 00:27:00,
2013-09-01 20:32:00,72.7,68.9,29.76,South,180,0.0,0.0,88,0.00,,,0.00,WUHU21623XXSP,2013-09-02 00:32:00,
2013-09-01 20:37:00,72.5,69.1,29.76,South,180,0.0,0.0,89,0.00,,,0.00,WUHU21623XXSP,2013-09-02 00:37:00,
2013-09-01 20:42:00,72.3,68.9,29.76,South,180,0.0,0.0,89,0.00,,,0.00,WUHU21623XXSP,2013-09-02 00:42:00,
2013-09-01 20:47:00,72.1,68.7,29.76,South,180,0.0,0.0,89,0.00,,,0.00,WUHU21623XXSP,2013-09-02 00:47:00,
2013-09-01 20:52:00,72.0,68.6,29.77,South,180,0.0,0.0,89,0.00,,,0.00,WUHU21623XXSP,2013-09-02 00:52:00,
2013-09-01 20:57:00,71.8,68.6,29.77,South,180,0.0,0.0,89,0.00,,,0.00,WUHU21623XXSP,2013-09-02 00:57:00,
2013-09-01 21:02:00,71.6,68.2,29.76,South,180,0.0,0.0,89,0.00,,,0.00,WUHU21623XXSP,2013-09-02 01:02:00,
2013-09-01 21:07:00,71.4,68.0,29.77,South,180,0.0,0.0,89,0.00,,,0.00,WUHU21623XXSP,2013-09-02 01:07:00,
2013-09-01 21:12:00,71.4,68.0,29.77,South,180,0.0,0.0,89,0.00,,,0.00,WUHU21623XXSP,2013-09-02 01:12:00,
2013-09-01 21:17:00,71.2,67.8,29.77,South,180,0.0,0.0,90,0.00,,,0.00,WUHU21623XXSP,2013-09-02 01:17:00,
2013-09-01 21:22:00,71.2,68.2,29.77,South,180,0.0,0.0,90,0.00,,,0.00,WUHU21623XXSP,2013-09-02 01:22:00,
2013-09-01 21:27:00,71.2,68.2,29.77,South,180,0.0,0.0,90,0.00,,,0.00,WUHU21623XXSP,2013-09-02 01:27:00,
2013-09-01 21:32:00,71.1,68.0,29.77,South,180,0.0,0.0,90,0.00,,,0.00,WUHU21623XXSP,2013-09-02 01:32:00,
2013-09-01 21:37:00,71.1,68.0,29.78,South,180,0.0,0.0,90,0.00,,,0.00,WUHU21623XXSP,2013-09-02 01:37:00,
2013-09-01 21:42:00,70.9,67.8,29.78,South,180,0.0,0.0,90,0.00,,,0.00,WUHU21623XXSP,2013-09-02 01:42:00,
2013-09-01 21:47:00,71.1,68.0,29.78,South,180,0.0,0.0,90,0.00,,,0.00,WUHU21623XXSP,2013-09-02 01:47:00,
2013-09-01 21:52:00,71.1,68.0,29.78,South,180,0.0,0.0,90,0.00,,,0.00,WUHU21623XXSP,2013-09-02 01:52:00,
2013-09-01 21:57:00,71.1,68.0,29.78,South,180,0.0,0.0,90,0.00,,,0.00,WUHU21623XXSP,2013-09-02 01:57:00,
2013-09-01 22:02:00,71.2,68.2,29.78,South,180,0.0,0.0,90,0.00,,,0.00,WUHU21623XXSP,2013-09-02 02:02:00,
2013-09-01 22:07:00,71.2,68.2,29.77,South,180,0.0,0.0,90,0.00,,,0.00,WUHU21623XXSP,2013-09-02 02:07:00,
2013-09-01 22:12:00,71.2,68.2,29.77,South,180,0.0,0.0,90,0.00,,,0.00,WUHU21623XXSP,2013-09-02 02:12:00,
2013-09-01 22:17:00,71.2,68.2,29.77,South,180,0.0,0.0,90,0.00,,,0.00,WUHU21623XXSP,2013-09-02 02:17:00,
2013-09-01 22:22:00,71.2,68.5,29.77,South,180,0.0,0.0,91,0.00,,,0.00,WUHU21623XXSP,2013-09-02 02:22:00,
2013-09-01 22:27:00,71.2,68.5,29.77,South,180,0.0,0.0,91,0.00,,,0.00,WUHU21623XXSP,2013-09-02 02:27:00,
2013-09-01 22:32:00,71.1,68.3,29.77,South,180,0.0,0.0,91,0.00,,,0.00,WUHU21623XXSP,2013-09-02 02:32:00,
2013-09-01 22:37:00,70.9,68.1,29.77,South,180,0.0,0.0,91,0.00,,,0.00,WUHU21623XXSP,2013-09-02 02:37:00,
2013-09-01 22:42:00,70.9,68.1,29.77,South,180,0.0,0.0,91,0.00,,,0.00,WUHU21623XXSP,2013-09-02 02:42:00,
2013-09-01 22:47:00,70.9,68.1,29.77,South,180,0.0,0.0,91,0.00,,,0.00,WUHU21623XXSP,2013-09-02 02:47:00,
2013-09-01 22:52:00,70.7,68.1,29.76,South,180,0.0,0.0,91,0.00,,,0.00,WUHU21623XXSP,2013-09-02 02:52:00,
2013-09-01 22:57:00,70.7,67.9,29.76,South,180,0.0,0.0,91,0.00,,,0.00,WUHU21623XXSP,2013-09-02 02:57:00,
2013-09-01 23:02:00,70.5,67.8,29.76,South,180,0.0,0.0,91,0.00,,,0.00,WUHU21623XXSP,2013-09-02 03:02:00,
2013-09-01 23:07:00,70.5,67.8,29.76,South,180,0.0,0.0,91,0.00,,,0.00,WUHU21623XXSP,2013-09-02 03:07:00,
2013-09-01 23:12:00,70.3,67.6,29.75,South,180,0.0,0.0,91,0.00,,,0.00,WUHU21623XXSP,2013-09-02 03:12:00,
2013-09-01 23:17:00,70.3,67.6,29.76,South,180,0.0,0.0,91,0.00,,,0.00,WUHU21623XXSP,2013-09-02 03:17:00,
2013-09-01 23:22:00,70.3,67.6,29.76,South,180,0.0,0.0,91,0.00,,,0.00,WUHU21623XXSP,2013-09-02 03:22:00,
2013-09-01 23:27:00,70.3,67.6,29.76,South,180,0.0,0.0,91,0.00,,,0.00,WUHU21623XXSP,2013-09-02 03:27:00,
2013-09-01 23:32:00,70.3,67.6,29.75,South,180,0.0,0.0,91,0.00,,,0.00,WUHU21623XXSP,2013-09-02 03:32:00,
2013-09-01 23:37:00,70.3,67.6,29.77,South,180,0.0,0.0,91,0.00,,,0.00,WUHU21623XXSP,2013-09-02 03:37:00,
2013-09-01 23:42:00,70.3,67.9,29.78,South,180,0.0,0.0,92,0.00,,,0.00,WUHU21623XXSP,2013-09-02 03:42:00,
2013-09-01 23:47:00,70.3,67.9,29.79,SW,225,4.0,4.0,92,0.00,,,0.00,WUHU21623XXSP,2013-09-02 03:47:00,
2013-09-01 23:52:00,69.4,66.4,29.76,North,0,0.0,6.5,90,0.02,,,0.02,WUHU21623XXSP,2013-09-02 03:52:00,
2013-09-01 23:57:00,68.9,66.0,29.77,North,0,0.0,6.5,90,0.08,,,0.08,WUHU21623XXSP,2013-09-02 03:57:00,